الصفحة الرئيسية
METAR-TAF:

METAR-TAF

مطار :

Bluefields, نيكاراغوا

دائرة عرض: 12-00N, خط طول: 083-46W, ارتفاع: 5 متر

مراقبة الطقس الحالي

تاريخ ووقت الإصدار 1ساعة و 2 دقيقة قبل الساعة 13:00UTC
ريح 4 عقدة من الشمال/الشمال الغربي
درجة الحرارة 24°درجة مئوية
الرطوبة 100%
ضغط 1011 hPa
الرؤية: 4000 متر
ملبد بالغيوم على ارتفاع 1600 قدم
رذاذ

METAR: MNBL 171300Z 34004KT 4000 DZ OVC016 24/24 Q1011

زمن: 08:02 (14:02 UTC)

توقعات

تاريخ ووقت الإصدار 16ساعات و 32 دقيقة قبل الساعة 21:30UTC
التوقعات صالحة من17 الساعة 00 UTC إلى 17 الساعة 24 UTC
ريح 6 عقدة من الجنوب الشرقي
الرؤية: 5000 متر
غيوم قليلة على ارتفاع 1600 قدم, مزنة ركامية.
غيوم مفككة على ارتفاع 1800 قدم
مؤقت
من 17 الساعة 06 UTC إلى 17 الساعة 13 UTC
ملبد بالغيوم على ارتفاع 1600 قدم
رذاذ
أصبح
من 17 الساعة 14 UTC إلى 17 الساعة 19 UTC
ريح 6 عقدة من الشرق
الرؤية: 7000 متر
غيوم مفككة على ارتفاع 1800 قدم

TAF: MNBL 162130Z 1700/1724 13006KT 5000 -TSRA/DZ FEW016CB BKN018 TEMPO 1706/1713 DZ OVC016 BECMG 1714/1719 10006KT 7000 VCRA/DZ BKN018

أرصاد الطقس والتوقعات من أكثر من 4000 مطار (تقارير الطقس للمطار METAR والتنبؤ بالطقس بالمطارTAF).

المحطات المتاحة هي النقط الصفراء والحمراء على الخريطة.

حرك المؤشر فوق النقطة لمعرفة اسم المحطة.

ثم انقر لمعرفة أرصاد وتوقعات الطقس.

لتغيير الخارطة: اضغط على الأزرار الخضراء مع رمز الصليب الأسود للتكبير. على الزر الأخضر مع شرطة للتصغير، أو على الأسهم الخضراء للخرائط المجاورة.


METAR-TAF: